sensor_id;sensor_type;location;lat;lon;timestamp;temperature;humidity
22006;DHT22;11167;46.988;15.470;2023-02-24T00:01:46;7.60;74.80
22006;DHT22;11167;46.988;15.470;2023-02-24T00:03:58;7.60;75.60
22006;DHT22;11167;46.988;15.470;2023-02-24T00:06:00;7.60;74.80
22006;DHT22;11167;46.988;15.470;2023-02-24T00:10:23;7.50;74.80
22006;DHT22;11167;46.988;15.470;2023-02-24T00:12:24;7.60;74.80
22006;DHT22;11167;46.988;15.470;2023-02-24T00:14:26;7.60;74.90
22006;DHT22;11167;46.988;15.470;2023-02-24T00:16:27;7.50;74.80
22006;DHT22;11167;46.988;15.470;2023-02-24T00:18:28;7.50;74.80
22006;DHT22;11167;46.988;15.470;2023-02-24T00:20:29;7.50;74.80
22006;DHT22;11167;46.988;15.470;2023-02-24T00:22:32;7.60;75.00
22006;DHT22;11167;46.988;15.470;2023-02-24T00:24:33;7.50;74.90
22006;DHT22;11167;46.988;15.470;2023-02-24T00:26:35;7.50;74.90
22006;DHT22;11167;46.988;15.470;2023-02-24T00:28:36;7.50;75.00
22006;DHT22;11167;46.988;15.470;2023-02-24T00:30:37;7.50;75.00
22006;DHT22;11167;46.988;15.470;2023-02-24T00:32:38;7.50;74.90
22006;DHT22;11167;46.988;15.470;2023-02-24T00:34:39;7.50;75.00
22006;DHT22;11167;46.988;15.470;2023-02-24T00:36:40;7.50;75.00
22006;DHT22;11167;46.988;15.470;2023-02-24T00:38:41;7.50;74.90
22006;DHT22;11167;46.988;15.470;2023-02-24T00:40:44;7.50;75.00
22006;DHT22;11167;46.988;15.470;2023-02-24T00:42:45;7.50;74.90
22006;DHT22;11167;46.988;15.470;2023-02-24T00:44:48;7.40;74.80
22006;DHT22;11167;46.988;15.470;2023-02-24T00:46:49;7.40;74.90
22006;DHT22;11167;46.988;15.470;2023-02-24T00:48:52;7.40;74.90
22006;DHT22;11167;46.988;15.470;2023-02-24T00:50:56;7.40;75.00
22006;DHT22;11167;46.988;15.470;2023-02-24T00:52:59;7.40;74.90
22006;DHT22;11167;46.988;15.470;2023-02-24T00:55:00;7.40;75.00
22006;DHT22;11167;46.988;15.470;2023-02-24T00:57:01;7.40;74.90
22006;DHT22;11167;46.988;15.470;2023-02-24T00:59:02;7.40;75.00
22006;DHT22;11167;46.988;15.470;2023-02-24T01:01:03;7.40;75.00
22006;DHT22;11167;46.988;15.470;2023-02-24T01:03:04;7.40;75.00
22006;DHT22;11167;46.988;15.470;2023-02-24T01:05:05;7.40;75.00
22006;DHT22;11167;46.988;15.470;2023-02-24T01:07:09;7.40;75.00
22006;DHT22;11167;46.988;15.470;2023-02-24T01:09:11;7.40;75.00
22006;DHT22;11167;46.988;15.470;2023-02-24T01:11:13;7.30;75.00
22006;DHT22;11167;46.988;15.470;2023-02-24T01:13:33;7.30;75.00
22006;DHT22;11167;46.988;15.470;2023-02-24T01:15:34;7.30;75.00
22006;DHT22;11167;46.988;15.470;2023-02-24T01:17:35;7.30;75.10
22006;DHT22;11167;46.988;15.470;2023-02-24T01:19:36;7.30;75.10
22006;DHT22;11167;46.988;15.470;2023-02-24T01:21:37;7.30;75.10
22006;DHT22;11167;46.988;15.470;2023-02-24T01:23:40;7.30;75.10
22006;DHT22;11167;46.988;15.470;2023-02-24T01:25:45;7.30;75.10
22006;DHT22;11167;46.988;15.470;2023-02-24T01:27:44;7.30;75.10
22006;DHT22;11167;46.988;15.470;2023-02-24T01:29:46;7.30;74.90
22006;DHT22;11167;46.988;15.470;2023-02-24T01:31:47;7.20;75.10
22006;DHT22;11167;46.988;15.470;2023-02-24T01:33:49;7.20;75.20
22006;DHT22;11167;46.988;15.470;2023-02-24T01:35:50;7.20;75.20
22006;DHT22;11167;46.988;15.470;2023-02-24T01:37:51;7.20;75.10
22006;DHT22;11167;46.988;15.470;2023-02-24T01:39:52;7.20;75.20
22006;DHT22;11167;46.988;15.470;2023-02-24T01:41:53;7.20;75.20
22006;DHT22;11167;46.988;15.470;2023-02-24T01:46:05;7.20;75.30
22006;DHT22;11167;46.988;15.470;2023-02-24T01:48:06;7.20;75.30
22006;DHT22;11167;46.988;15.470;2023-02-24T01:50:08;7.20;75.30
22006;DHT22;11167;46.988;15.470;2023-02-24T01:52:15;7.20;75.30
22006;DHT22;11167;46.988;15.470;2023-02-24T01:54:17;7.10;75.30
22006;DHT22;11167;46.988;15.470;2023-02-24T01:56:20;7.10;75.30
22006;DHT22;11167;46.988;15.470;2023-02-24T01:58:22;7.10;75.30
22006;DHT22;11167;46.988;15.470;2023-02-24T02:00:24;7.10;75.30
22006;DHT22;11167;46.988;15.470;2023-02-24T02:02:33;7.10;75.30
22006;DHT22;11167;46.988;15.470;2023-02-24T02:04:42;7.10;75.30
22006;DHT22;11167;46.988;15.470;2023-02-24T02:06:43;7.10;75.40
22006;DHT22;11167;46.988;15.470;2023-02-24T02:08:45;7.10;75.10
22006;DHT22;11167;46.988;15.470;2023-02-24T02:10:47;7.10;75.50
22006;DHT22;11167;46.988;15.470;2023-02-24T02:12:48;7.10;75.50
22006;DHT22;11167;46.988;15.470;2023-02-24T02:14:50;7.10;75.50
22006;DHT22;11167;46.988;15.470;2023-02-24T02:17:38;7.00;75.50
22006;DHT22;11167;46.988;15.470;2023-02-24T02:19:12;7.00;75.50
22006;DHT22;11167;46.988;15.470;2023-02-24T02:28:11;7.10;75.60
22006;DHT22;11167;46.988;15.470;2023-02-24T02:30:17;7.00;75.70
22006;DHT22;11167;46.988;15.470;2023-02-24T02:39:09;6.90;75.60
22006;DHT22;11167;46.988;15.470;2023-02-24T02:43:21;6.90;75.60
22006;DHT22;11167;46.988;15.470;2023-02-24T02:45:41;6.90;76.60
22006;DHT22;11167;46.988;15.470;2023-02-24T02:47:50;6.90;75.70
22006;DHT22;11167;46.988;15.470;2023-02-24T02:52:17;6.90;75.80
22006;DHT22;11167;46.988;15.470;2023-02-24T02:54:23;6.90;75.80
22006;DHT22;11167;46.988;15.470;2023-02-24T02:56:24;6.90;75.80
22006;DHT22;11167;46.988;15.470;2023-02-24T02:58:27;6.80;75.70
22006;DHT22;11167;46.988;15.470;2023-02-24T03:00:30;6.80;75.00
22006;DHT22;11167;46.988;15.470;2023-02-24T03:02:32;6.80;75.80
22006;DHT22;11167;46.988;15.470;2023-02-24T03:04:38;6.80;75.80
22006;DHT22;11167;46.988;15.470;2023-02-24T03:06:41;6.80;75.80
22006;DHT22;11167;46.988;15.470;2023-02-24T03:08:43;6.80;75.80
22006;DHT22;11167;46.988;15.470;2023-02-24T03:10:45;6.80;75.80
22006;DHT22;11167;46.988;15.470;2023-02-24T03:12:50;6.80;75.80
22006;DHT22;11167;46.988;15.470;2023-02-24T03:14:55;6.80;75.80
22006;DHT22;11167;46.988;15.470;2023-02-24T03:16:57;6.80;75.80
22006;DHT22;11167;46.988;15.470;2023-02-24T03:19:00;6.80;75.80
22006;DHT22;11167;46.988;15.470;2023-02-24T03:21:08;6.70;75.80
22006;DHT22;11167;46.988;15.470;2023-02-24T03:23:12;6.70;75.80
22006;DHT22;11167;46.988;15.470;2023-02-24T03:25:14;6.70;76.60
22006;DHT22;11167;46.988;15.470;2023-02-24T03:27:18;6.70;75.80
22006;DHT22;11167;46.988;15.470;2023-02-24T03:31:32;6.70;75.80
22006;DHT22;11167;46.988;15.470;2023-02-24T03:33:38;6.70;75.80
22006;DHT22;11167;46.988;15.470;2023-02-24T03:35:36;6.70;75.80
22006;DHT22;11167;46.988;15.470;2023-02-24T03:37:38;6.70;75.90
22006;DHT22;11167;46.988;15.470;2023-02-24T03:39:39;6.70;76.00
22006;DHT22;11167;46.988;15.470;2023-02-24T03:41:48;6.70;75.80
22006;DHT22;11167;46.988;15.470;2023-02-24T03:43:46;6.70;75.90
22006;DHT22;11167;46.988;15.470;2023-02-24T03:45:47;6.70;75.90
22006;DHT22;11167;46.988;15.470;2023-02-24T03:47:49;6.70;76.00
22006;DHT22;11167;46.988;15.470;2023-02-24T03:49:52;6.70;75.80
22006;DHT22;11167;46.988;15.470;2023-02-24T03:52:01;6.60;75.80
22006;DHT22;11167;46.988;15.470;2023-02-24T03:56:04;6.60;75.80
22006;DHT22;11167;46.988;15.470;2023-02-24T04:00:14;6.60;76.70
22006;DHT22;11167;46.988;15.470;2023-02-24T04:02:22;6.60;76.70
22006;DHT22;11167;46.988;15.470;2023-02-24T04:06:44;6.60;76.10
22006;DHT22;11167;46.988;15.470;2023-02-24T04:11:16;6.60;75.90
22006;DHT22;11167;46.988;15.470;2023-02-24T04:15:40;6.60;76.00
22006;DHT22;11167;46.988;15.470;2023-02-24T04:17:41;6.60;76.00
22006;DHT22;11167;46.988;15.470;2023-02-24T04:19:42;6.60;76.00
22006;DHT22;11167;46.988;15.470;2023-02-24T04:21:44;6.50;75.90
22006;DHT22;11167;46.988;15.470;2023-02-24T04:23:48;6.50;76.00
22006;DHT22;11167;46.988;15.470;2023-02-24T04:25:50;6.50;76.00
22006;DHT22;11167;46.988;15.470;2023-02-24T04:27:52;6.50;76.00
22006;DHT22;11167;46.988;15.470;2023-02-24T04:29:54;6.50;76.00
22006;DHT22;11167;46.988;15.470;2023-02-24T04:31:57;6.60;76.10
22006;DHT22;11167;46.988;15.470;2023-02-24T04:33:59;6.50;76.10
22006;DHT22;11167;46.988;15.470;2023-02-24T04:36:01;6.50;76.90
22006;DHT22;11167;46.988;15.470;2023-02-24T04:38:03;6.60;76.00
22006;DHT22;11167;46.988;15.470;2023-02-24T04:40:05;6.50;76.00
22006;DHT22;11167;46.988;15.470;2023-02-24T04:42:08;6.50;76.00
22006;DHT22;11167;46.988;15.470;2023-02-24T04:44:10;6.50;76.00
22006;DHT22;11167;46.988;15.470;2023-02-24T04:46:11;6.50;76.00
22006;DHT22;11167;46.988;15.470;2023-02-24T04:48:12;6.50;76.00
22006;DHT22;11167;46.988;15.470;2023-02-24T04:50:14;6.50;76.00
22006;DHT22;11167;46.988;15.470;2023-02-24T04:52:18;6.50;76.00
22006;DHT22;11167;46.988;15.470;2023-02-24T04:54:20;6.50;76.00
22006;DHT22;11167;46.988;15.470;2023-02-24T04:56:21;6.50;76.10
22006;DHT22;11167;46.988;15.470;2023-02-24T04:58:23;6.50;76.00
22006;DHT22;11167;46.988;15.470;2023-02-24T05:00:27;6.50;76.00
22006;DHT22;11167;46.988;15.470;2023-02-24T05:02:30;6.50;76.00
22006;DHT22;11167;46.988;15.470;2023-02-24T05:04:33;6.50;76.10
22006;DHT22;11167;46.988;15.470;2023-02-24T05:06:35;6.50;76.00
22006;DHT22;11167;46.988;15.470;2023-02-24T05:08:38;6.50;76.10
22006;DHT22;11167;46.988;15.470;2023-02-24T05:10:39;6.50;76.00
22006;DHT22;11167;46.988;15.470;2023-02-24T05:12:41;6.50;76.10
22006;DHT22;11167;46.988;15.470;2023-02-24T05:14:42;6.50;76.20
22006;DHT22;11167;46.988;15.470;2023-02-24T05:16:44;6.50;76.10
22006;DHT22;11167;46.988;15.470;2023-02-24T05:18:45;6.50;76.10
22006;DHT22;11167;46.988;15.470;2023-02-24T05:20:47;6.50;76.20
22006;DHT22;11167;46.988;15.470;2023-02-24T05:23:07;6.40;76.10
22006;DHT22;11167;46.988;15.470;2023-02-24T05:25:09;6.50;76.20
22006;DHT22;11167;46.988;15.470;2023-02-24T05:27:12;6.40;76.10
22006;DHT22;11167;46.988;15.470;2023-02-24T05:29:13;6.40;76.10
22006;DHT22;11167;46.988;15.470;2023-02-24T05:31:15;6.40;76.20
22006;DHT22;11167;46.988;15.470;2023-02-24T05:33:17;6.40;76.10
22006;DHT22;11167;46.988;15.470;2023-02-24T05:35:21;6.40;76.20
22006;DHT22;11167;46.988;15.470;2023-02-24T05:37:21;6.40;76.20
22006;DHT22;11167;46.988;15.470;2023-02-24T05:39:23;6.40;76.20
22006;DHT22;11167;46.988;15.470;2023-02-24T05:41:26;6.40;76.20
22006;DHT22;11167;46.988;15.470;2023-02-24T05:43:34;6.40;76.20
22006;DHT22;11167;46.988;15.470;2023-02-24T05:45:37;6.40;76.20
22006;DHT22;11167;46.988;15.470;2023-02-24T05:47:38;6.40;76.10
22006;DHT22;11167;46.988;15.470;2023-02-24T05:49:39;6.40;76.20
22006;DHT22;11167;46.988;15.470;2023-02-24T05:51:42;6.40;76.30
22006;DHT22;11167;46.988;15.470;2023-02-24T05:53:45;6.40;76.30
22006;DHT22;11167;46.988;15.470;2023-02-24T05:55:47;6.40;76.30
22006;DHT22;11167;46.988;15.470;2023-02-24T05:57:48;6.40;76.30
22006;DHT22;11167;46.988;15.470;2023-02-24T05:59:50;6.40;76.30
22006;DHT22;11167;46.988;15.470;2023-02-24T06:01:51;6.40;76.40
22006;DHT22;11167;46.988;15.470;2023-02-24T06:03:55;6.40;76.40
22006;DHT22;11167;46.988;15.470;2023-02-24T06:08:02;6.30;76.30
22006;DHT22;11167;46.988;15.470;2023-02-24T06:10:04;6.40;76.40
22006;DHT22;11167;46.988;15.470;2023-02-24T06:12:07;6.30;76.30
22006;DHT22;11167;46.988;15.470;2023-02-24T06:14:08;6.30;76.30
22006;DHT22;11167;46.988;15.470;2023-02-24T06:16:09;6.30;76.30
22006;DHT22;11167;46.988;15.470;2023-02-24T06:18:12;6.30;76.40
22006;DHT22;11167;46.988;15.470;2023-02-24T06:20:13;6.30;76.40
22006;DHT22;11167;46.988;15.470;2023-02-24T06:22:16;6.30;76.40
22006;DHT22;11167;46.988;15.470;2023-02-24T06:24:19;6.30;76.40
22006;DHT22;11167;46.988;15.470;2023-02-24T06:26:20;6.30;76.40
22006;DHT22;11167;46.988;15.470;2023-02-24T06:28:21;6.30;76.40
22006;DHT22;11167;46.988;15.470;2023-02-24T06:30:29;6.30;76.50
22006;DHT22;11167;46.988;15.470;2023-02-24T06:32:32;6.30;76.40
22006;DHT22;11167;46.988;15.470;2023-02-24T06:34:34;6.30;76.40
22006;DHT22;11167;46.988;15.470;2023-02-24T06:36:40;6.30;76.50
22006;DHT22;11167;46.988;15.470;2023-02-24T06:38:38;6.30;76.50
22006;DHT22;11167;46.988;15.470;2023-02-24T06:40:39;6.20;76.40
22006;DHT22;11167;46.988;15.470;2023-02-24T06:42:47;6.20;76.40
22006;DHT22;11167;46.988;15.470;2023-02-24T06:44:45;6.20;76.40
22006;DHT22;11167;46.988;15.470;2023-02-24T06:46:46;6.20;76.40
22006;DHT22;11167;46.988;15.470;2023-02-24T06:48:47;6.20;76.40
22006;DHT22;11167;46.988;15.470;2023-02-24T06:50:48;6.20;76.40
22006;DHT22;11167;46.988;15.470;2023-02-24T06:52:54;6.20;76.40
22006;DHT22;11167;46.988;15.470;2023-02-24T06:54:57;6.20;76.40
22006;DHT22;11167;46.988;15.470;2023-02-24T06:56:58;6.20;76.40
22006;DHT22;11167;46.988;15.470;2023-02-24T06:58:59;6.20;76.50
22006;DHT22;11167;46.988;15.470;2023-02-24T07:01:00;6.20;76.40
22006;DHT22;11167;46.988;15.470;2023-02-24T07:03:12;6.20;76.40
22006;DHT22;11167;46.988;15.470;2023-02-24T07:05:15;6.20;76.40
22006;DHT22;11167;46.988;15.470;2023-02-24T07:07:16;6.20;76.40
22006;DHT22;11167;46.988;15.470;2023-02-24T07:09:19;6.20;76.50
22006;DHT22;11167;46.988;15.470;2023-02-24T07:11:21;6.20;76.40
22006;DHT22;11167;46.988;15.470;2023-02-24T07:13:22;6.20;76.40
22006;DHT22;11167;46.988;15.470;2023-02-24T07:15:23;6.20;76.40
22006;DHT22;11167;46.988;15.470;2023-02-24T07:17:24;6.20;76.50
22006;DHT22;11167;46.988;15.470;2023-02-24T07:19:27;6.20;76.40
22006;DHT22;11167;46.988;15.470;2023-02-24T07:21:30;6.10;76.40
22006;DHT22;11167;46.988;15.470;2023-02-24T07:23:33;6.20;76.40
22006;DHT22;11167;46.988;15.470;2023-02-24T07:25:34;6.20;76.40
22006;DHT22;11167;46.988;15.470;2023-02-24T07:27:35;6.10;76.40
22006;DHT22;11167;46.988;15.470;2023-02-24T07:29:36;6.10;76.40
22006;DHT22;11167;46.988;15.470;2023-02-24T07:31:38;6.10;76.40
22006;DHT22;11167;46.988;15.470;2023-02-24T07:33:41;6.10;76.30
22006;DHT22;11167;46.988;15.470;2023-02-24T07:35:49;6.10;76.40
22006;DHT22;11167;46.988;15.470;2023-02-24T07:37:50;6.10;76.30
22006;DHT22;11167;46.988;15.470;2023-02-24T07:39:51;6.10;76.30
22006;DHT22;11167;46.988;15.470;2023-02-24T07:41:52;6.10;76.20
22006;DHT22;11167;46.988;15.470;2023-02-24T07:43:58;6.10;76.20
22006;DHT22;11167;46.988;15.470;2023-02-24T07:46:08;6.10;76.20
22006;DHT22;11167;46.988;15.470;2023-02-24T07:48:11;6.10;76.20
22006;DHT22;11167;46.988;15.470;2023-02-24T07:50:13;6.10;76.20
22006;DHT22;11167;46.988;15.470;2023-02-24T07:52:16;6.10;76.30
22006;DHT22;11167;46.988;15.470;2023-02-24T07:54:18;6.10;76.20
22006;DHT22;11167;46.988;15.470;2023-02-24T07:56:20;6.10;76.20
22006;DHT22;11167;46.988;15.470;2023-02-24T07:58:23;6.10;76.20
22006;DHT22;11167;46.988;15.470;2023-02-24T08:00:24;6.10;76.20
22006;DHT22;11167;46.988;15.470;2023-02-24T08:02:27;6.20;76.20
22006;DHT22;11167;46.988;15.470;2023-02-24T08:04:28;6.20;76.20
22006;DHT22;11167;46.988;15.470;2023-02-24T08:06:30;6.20;76.20
22006;DHT22;11167;46.988;15.470;2023-02-24T08:08:38;6.10;76.10
22006;DHT22;11167;46.988;15.470;2023-02-24T08:10:41;6.20;76.20
22006;DHT22;11167;46.988;15.470;2023-02-24T08:12:42;6.20;76.20
22006;DHT22;11167;46.988;15.470;2023-02-24T08:14:43;6.20;76.20
22006;DHT22;11167;46.988;15.470;2023-02-24T08:16:47;6.20;76.20
22006;DHT22;11167;46.988;15.470;2023-02-24T08:18:48;6.20;76.20
22006;DHT22;11167;46.988;15.470;2023-02-24T08:20:49;6.20;76.30
22006;DHT22;11167;46.988;15.470;2023-02-24T08:22:53;6.20;76.20
22006;DHT22;11167;46.988;15.470;2023-02-24T08:24:55;6.20;76.20
22006;DHT22;11167;46.988;15.470;2023-02-24T08:26:58;6.30;76.40
22006;DHT22;11167;46.988;15.470;2023-02-24T08:29:05;6.30;76.50
22006;DHT22;11167;46.988;15.470;2023-02-24T08:31:06;6.30;76.50
22006;DHT22;11167;46.988;15.470;2023-02-24T08:33:08;6.30;76.60
22006;DHT22;11167;46.988;15.470;2023-02-24T08:35:10;6.30;76.60
22006;DHT22;11167;46.988;15.470;2023-02-24T08:37:14;6.30;76.70
22006;DHT22;11167;46.988;15.470;2023-02-24T08:39:15;6.30;76.70
22006;DHT22;11167;46.988;15.470;2023-02-24T08:41:18;6.40;76.90
22006;DHT22;11167;46.988;15.470;2023-02-24T08:43:23;6.40;76.90
22006;DHT22;11167;46.988;15.470;2023-02-24T08:45:32;6.40;77.00
22006;DHT22;11167;46.988;15.470;2023-02-24T08:47:33;6.40;77.10
22006;DHT22;11167;46.988;15.470;2023-02-24T08:49:35;6.40;77.10
22006;DHT22;11167;46.988;15.470;2023-02-24T08:51:38;6.50;77.30
22006;DHT22;11167;46.988;15.470;2023-02-24T08:53:41;6.50;77.40
22006;DHT22;11167;46.988;15.470;2023-02-24T08:55:42;6.50;77.40
22006;DHT22;11167;46.988;15.470;2023-02-24T08:57:43;6.50;77.50
22006;DHT22;11167;46.988;15.470;2023-02-24T08:59:46;6.50;77.60
22006;DHT22;11167;46.988;15.470;2023-02-24T09:01:48;6.60;77.70
22006;DHT22;11167;46.988;15.470;2023-02-24T09:03:56;6.60;77.70
22006;DHT22;11167;46.988;15.470;2023-02-24T09:06:01;6.60;77.80
22006;DHT22;11167;46.988;15.470;2023-02-24T09:08:05;6.60;77.90
22006;DHT22;11167;46.988;15.470;2023-02-24T09:10:12;6.70;77.90
22006;DHT22;11167;46.988;15.470;2023-02-24T09:12:12;6.70;77.90
22006;DHT22;11167;46.988;15.470;2023-02-24T09:14:27;6.70;77.90
22006;DHT22;11167;46.988;15.470;2023-02-24T09:16:28;6.80;78.10
22006;DHT22;11167;46.988;15.470;2023-02-24T09:18:29;6.80;78.10
22006;DHT22;11167;46.988;15.470;2023-02-24T09:20:32;6.90;78.20
22006;DHT22;11167;46.988;15.470;2023-02-24T09:22:35;6.90;78.20
22006;DHT22;11167;46.988;15.470;2023-02-24T09:24:43;6.90;78.30
22006;DHT22;11167;46.988;15.470;2023-02-24T09:26:45;7.00;78.30
22006;DHT22;11167;46.988;15.470;2023-02-24T09:28:46;7.00;78.40
22006;DHT22;11167;46.988;15.470;2023-02-24T09:30:55;7.00;78.50
22006;DHT22;11167;46.988;15.470;2023-02-24T09:32:57;7.10;78.60
22006;DHT22;11167;46.988;15.470;2023-02-24T09:35:01;7.10;78.80
22006;DHT22;11167;46.988;15.470;2023-02-24T09:37:03;7.20;78.90
22006;DHT22;11167;46.988;15.470;2023-02-24T09:39:04;7.20;78.90
22006;DHT22;11167;46.988;15.470;2023-02-24T09:41:50;7.20;79.00
22006;DHT22;11167;46.988;15.470;2023-02-24T09:43:15;7.30;79.10
22006;DHT22;11167;46.988;15.470;2023-02-24T09:45:21;7.30;79.10
22006;DHT22;11167;46.988;15.470;2023-02-24T09:47:23;7.40;79.20
22006;DHT22;11167;46.988;15.470;2023-02-24T09:49:33;7.40;79.20
22006;DHT22;11167;46.988;15.470;2023-02-24T09:51:35;7.40;79.20
22006;DHT22;11167;46.988;15.470;2023-02-24T09:53:38;7.50;79.30
22006;DHT22;11167;46.988;15.470;2023-02-24T09:58:10;7.60;79.40
22006;DHT22;11167;46.988;15.470;2023-02-24T10:00:19;7.70;79.50
22006;DHT22;11167;46.988;15.470;2023-02-24T10:02:38;7.70;79.50
22006;DHT22;11167;46.988;15.470;2023-02-24T10:04:51;7.70;79.50
22006;DHT22;11167;46.988;15.470;2023-02-24T10:07:12;7.80;79.50
22006;DHT22;11167;46.988;15.470;2023-02-24T10:11:24;7.90;79.60
22006;DHT22;11167;46.988;15.470;2023-02-24T10:13:36;8.00;79.70
22006;DHT22;11167;46.988;15.470;2023-02-24T10:15:37;8.00;79.60
22006;DHT22;11167;46.988;15.470;2023-02-24T10:17:58;8.10;79.70
22006;DHT22;11167;46.988;15.470;2023-02-24T10:20:04;8.10;79.60
22006;DHT22;11167;46.988;15.470;2023-02-24T10:22:06;8.20;79.70
22006;DHT22;11167;46.988;15.470;2023-02-24T10:24:12;8.20;79.60
22006;DHT22;11167;46.988;15.470;2023-02-24T10:26:17;8.30;79.80
22006;DHT22;11167;46.988;15.470;2023-02-24T10:28:29;8.30;79.70
22006;DHT22;11167;46.988;15.470;2023-02-24T10:32:42;8.40;79.80
22006;DHT22;11167;46.988;15.470;2023-02-24T10:34:41;8.50;79.80
22006;DHT22;11167;46.988;15.470;2023-02-24T10:36:44;8.50;79.80
22006;DHT22;11167;46.988;15.470;2023-02-24T10:38:47;8.60;79.90
22006;DHT22;11167;46.988;15.470;2023-02-24T10:40:52;8.60;79.80
22006;DHT22;11167;46.988;15.470;2023-02-24T10:43:04;8.70;80.60
22006;DHT22;11167;46.988;15.470;2023-02-24T10:45:12;8.70;79.90
22006;DHT22;11167;46.988;15.470;2023-02-24T10:47:11;8.80;79.90
22006;DHT22;11167;46.988;15.470;2023-02-24T10:49:12;8.80;79.90
22006;DHT22;11167;46.988;15.470;2023-02-24T10:51:16;8.90;79.90
22006;DHT22;11167;46.988;15.470;2023-02-24T10:53:25;9.00;79.90
22006;DHT22;11167;46.988;15.470;2023-02-24T10:55:44;9.00;79.90
22006;DHT22;11167;46.988;15.470;2023-02-24T10:57:48;9.10;80.00
22006;DHT22;11167;46.988;15.470;2023-02-24T10:59:53;9.10;79.90
22006;DHT22;11167;46.988;15.470;2023-02-24T11:02:07;9.20;79.90
22006;DHT22;11167;46.988;15.470;2023-02-24T11:04:16;9.20;79.90
22006;DHT22;11167;46.988;15.470;2023-02-24T11:06:32;9.30;80.00
22006;DHT22;11167;46.988;15.470;2023-02-24T11:08:41;9.30;79.90
22006;DHT22;11167;46.988;15.470;2023-02-24T11:10:50;9.40;79.90
22006;DHT22;11167;46.988;15.470;2023-02-24T11:12:55;9.50;80.00
22006;DHT22;11167;46.988;15.470;2023-02-24T11:15:19;9.50;80.80
22006;DHT22;11167;46.988;15.470;2023-02-24T11:17:47;9.60;79.90
22006;DHT22;11167;46.988;15.470;2023-02-24T11:20:06;9.60;79.90
22006;DHT22;11167;46.988;15.470;2023-02-24T11:21:54;9.70;80.00
22006;DHT22;11167;46.988;15.470;2023-02-24T11:23:56;9.70;80.00
22006;DHT22;11167;46.988;15.470;2023-02-24T11:26:09;9.80;80.00
22006;DHT22;11167;46.988;15.470;2023-02-24T11:28:03;9.80;79.90
22006;DHT22;11167;46.988;15.470;2023-02-24T11:30:13;9.90;79.90
22006;DHT22;11167;46.988;15.470;2023-02-24T11:32:18;9.90;79.90
22006;DHT22;11167;46.988;15.470;2023-02-24T11:38:39;10.10;79.90
22006;DHT22;11167;46.988;15.470;2023-02-24T11:40:42;10.10;79.80
22006;DHT22;11167;46.988;15.470;2023-02-24T11:42:52;10.20;79.80
22006;DHT22;11167;46.988;15.470;2023-02-24T11:45:16;10.20;79.80
22006;DHT22;11167;46.988;15.470;2023-02-24T11:47:15;10.30;79.80
22006;DHT22;11167;46.988;15.470;2023-02-24T11:49:24;10.40;79.80
22006;DHT22;11167;46.988;15.470;2023-02-24T11:51:23;10.40;79.80
22006;DHT22;11167;46.988;15.470;2023-02-24T11:55:45;10.50;80.60
22006;DHT22;11167;46.988;15.470;2023-02-24T11:57:48;10.50;79.70
22006;DHT22;11167;46.988;15.470;2023-02-24T11:59:56;10.60;79.90
22006;DHT22;11167;46.988;15.470;2023-02-24T12:01:57;10.60;79.90
22006;DHT22;11167;46.988;15.470;2023-02-24T12:06:04;10.70;79.80
22006;DHT22;11167;46.988;15.470;2023-02-24T12:10:17;10.80;79.90
22006;DHT22;11167;46.988;15.470;2023-02-24T12:16:32;11.00;79.90
22006;DHT22;11167;46.988;15.470;2023-02-24T12:18:37;11.10;80.00
22006;DHT22;11167;46.988;15.470;2023-02-24T12:22:53;11.20;80.00
22006;DHT22;11167;46.988;15.470;2023-02-24T12:24:54;11.30;80.10
22006;DHT22;11167;46.988;15.470;2023-02-24T12:40:23;11.70;80.10
22006;DHT22;11167;46.988;15.470;2023-02-24T12:47:15;11.90;80.30
22006;DHT22;11167;46.988;15.470;2023-02-24T12:48:59;12.00;80.30
22006;DHT22;11167;46.988;15.470;2023-02-24T12:53:08;12.10;80.20
22006;DHT22;11167;46.988;15.470;2023-02-24T12:55:18;12.20;81.10
22006;DHT22;11167;46.988;15.470;2023-02-24T12:59:24;12.30;80.20
22006;DHT22;11167;46.988;15.470;2023-02-24T13:06:12;12.50;80.20
22006;DHT22;11167;46.988;15.470;2023-02-24T13:07:49;12.60;80.20
22006;DHT22;11167;46.988;15.470;2023-02-24T13:16:33;12.80;80.10
22006;DHT22;11167;46.988;15.470;2023-02-24T13:18:37;12.90;80.10
22006;DHT22;11167;46.988;15.470;2023-02-24T13:20:40;13.00;80.10
22006;DHT22;11167;46.988;15.470;2023-02-24T13:22:42;13.10;80.10
22006;DHT22;11167;46.988;15.470;2023-02-24T13:29:14;13.20;80.00
22006;DHT22;11167;46.988;15.470;2023-02-24T13:31:16;13.30;80.00
22006;DHT22;11167;46.988;15.470;2023-02-24T13:37:34;13.50;80.10
22006;DHT22;11167;46.988;15.470;2023-02-24T13:39:35;13.60;80.00
22006;DHT22;11167;46.988;15.470;2023-02-24T13:41:38;13.70;79.90
22006;DHT22;11167;46.988;15.470;2023-02-24T13:43:40;13.70;79.80
22006;DHT22;11167;46.988;15.470;2023-02-24T13:45:41;13.80;79.80
22006;DHT22;11167;46.988;15.470;2023-02-24T13:47:53;13.90;79.80
22006;DHT22;11167;46.988;15.470;2023-02-24T13:50:35;13.90;79.70
22006;DHT22;11167;46.988;15.470;2023-02-24T14:01:08;14.30;79.70
22006;DHT22;11167;46.988;15.470;2023-02-24T14:02:43;14.40;79.70
22006;DHT22;11167;46.988;15.470;2023-02-24T14:04:47;14.40;79.50
22006;DHT22;11167;46.988;15.470;2023-02-24T14:06:54;14.50;79.40
22006;DHT22;11167;46.988;15.470;2023-02-24T14:08:56;14.60;79.50
22006;DHT22;11167;46.988;15.470;2023-02-24T14:10:58;14.70;79.20
22006;DHT22;11167;46.988;15.470;2023-02-24T14:15:06;14.80;79.20
22006;DHT22;11167;46.988;15.470;2023-02-24T14:17:25;14.80;79.00
22006;DHT22;11167;46.988;15.470;2023-02-24T14:19:28;14.90;79.00
22006;DHT22;11167;46.988;15.470;2023-02-24T14:21:30;15.00;78.90
22006;DHT22;11167;46.988;15.470;2023-02-24T14:23:32;15.00;78.70
22006;DHT22;11167;46.988;15.470;2023-02-24T14:25:34;15.10;78.50
22006;DHT22;11167;46.988;15.470;2023-02-24T14:27:35;15.20;78.60
22006;DHT22;11167;46.988;15.470;2023-02-24T14:29:36;15.20;78.60
22006;DHT22;11167;46.988;15.470;2023-02-24T14:31:38;15.30;78.60
22006;DHT22;11167;46.988;15.470;2023-02-24T14:33:41;15.40;78.60
22006;DHT22;11167;46.988;15.470;2023-02-24T14:35:44;15.50;78.40
22006;DHT22;11167;46.988;15.470;2023-02-24T14:37:45;15.50;78.20
22006;DHT22;11167;46.988;15.470;2023-02-24T14:39:49;15.50;78.10
22006;DHT22;11167;46.988;15.470;2023-02-24T14:42:02;15.60;78.10
22006;DHT22;11167;46.988;15.470;2023-02-24T14:43:55;15.70;78.10
22006;DHT22;11167;46.988;15.470;2023-02-24T14:45:56;15.70;78.20
22006;DHT22;11167;46.988;15.470;2023-02-24T14:47:58;15.80;78.00
22006;DHT22;11167;46.988;15.470;2023-02-24T14:50:00;15.90;77.90
22006;DHT22;11167;46.988;15.470;2023-02-24T14:54:05;15.90;78.20
22006;DHT22;11167;46.988;15.470;2023-02-24T14:56:07;16.00;78.20